Time;durP1;ratioP1;P1;durP2;ratioP2;P2;SDS_P1;SDS_P2;PMS_P1;PMS_P2;Temp;Humidity;BMP_temperature;BMP_pressure;BME280_temperature;BME280_humidity;BME280_pressure;Samples;Min_cycle;Max_cycle;Signal;HPM_P1;HPM_P2
2020/12/14 00:01:39;;;;;;;3.25;2.90;;;4.90;99.90;;;;;;4431693;32;20065;-52
2020/12/14 00:04:06;;;;;;;16.20;4.40;;;4.90;99.90;;;;;;4435448;32;20060;-53
2020/12/14 00:06:31;;;;;;;25.88;2.80;;;4.90;99.90;;;;;;4404059;32;20110;-54
2020/12/14 00:08:57;;;;;;;6.60;3.72;;;4.90;99.90;;;;;;4415629;32;20073;-56
2020/12/14 00:11:33;;;;;;;15.20;5.37;;;4.90;99.90;;;;;;4402995;32;20070;-56
2020/12/14 00:13:58;;;;;;;6.85;3.92;;;4.90;99.90;;;;;;4415183;32;20523;-54
2020/12/14 00:16:24;;;;;;;6.60;3.40;;;5.00;99.90;;;;;;4414971;32;20061;-55
2020/12/14 00:18:49;;;;;;;23.98;4.22;;;5.00;99.90;;;;;;4415808;32;20065;-53
2020/12/14 00:21:16;;;;;;;13.57;5.35;;;5.10;99.90;;;;;;4416360;32;20392;-56
2020/12/14 00:23:42;;;;;;;6.30;2.20;;;5.00;99.90;;;;;;4402117;32;20078;-54
2020/12/14 00:26:07;;;;;;;3.65;3.17;;;5.00;99.90;;;;;;4415838;32;20467;-53
2020/12/14 00:28:33;;;;;;;8.95;3.90;;;5.00;99.90;;;;;;4415913;32;20082;-57
2020/12/14 00:30:58;;;;;;;5.87;3.12;;;4.90;99.90;;;;;;4416154;32;20070;-53
2020/12/14 00:33:24;;;;;;;4.87;2.90;;;4.90;99.90;;;;;;4401145;32;20115;-55
2020/12/14 00:35:49;;;;;;;9.07;4.55;;;4.90;99.90;;;;;;4444091;32;20495;-57
2020/12/14 00:38:15;;;;;;;10.88;3.72;;;4.90;99.90;;;;;;4433125;32;20125;-52
2020/12/14 00:40:40;;;;;;;5.32;3.45;;;4.90;99.90;;;;;;4445767;32;20069;-57
2020/12/14 00:43:06;;;;;;;10.60;4.22;;;5.00;99.90;;;;;;4446150;32;20076;-56
2020/12/14 00:45:31;;;;;;;4.28;2.78;;;5.00;99.90;;;;;;4445816;32;20082;-53
2020/12/14 00:47:57;;;;;;;15.05;4.95;;;5.10;99.90;;;;;;4435466;32;20061;-56
2020/12/14 00:50:22;;;;;;;7.50;3.92;;;5.10;99.90;;;;;;4431410;32;20061;-56
2020/12/14 00:52:47;;;;;;;12.73;2.78;;;5.20;99.90;;;;;;4431580;32;20077;-52
2020/12/14 00:55:13;;;;;;;6.75;3.95;;;5.10;99.90;;;;;;4430941;32;20073;-56
2020/12/14 00:57:38;;;;;;;10.02;2.92;;;5.10;99.90;;;;;;4431184;32;20069;-53
2020/12/14 01:00:05;;;;;;;3.80;2.95;;;5.10;99.90;;;;;;4431586;32;20069;-56
2020/12/14 01:02:30;;;;;;;5.87;3.28;;;5.10;99.90;;;;;;4431171;32;20089;-57
2020/12/14 01:04:56;;;;;;;6.57;2.87;;;5.20;99.90;;;;;;4435308;32;20565;-55
2020/12/14 01:07:21;;;;;;;6.20;3.00;;;5.20;99.90;;;;;;4430435;32;20444;-53
2020/12/14 01:09:47;;;;;;;7.47;2.78;;;5.30;99.90;;;;;;4431076;32;20086;-56
2020/12/14 01:12:13;;;;;;;10.27;3.15;;;5.30;99.90;;;;;;4431748;32;20064;-54
2020/12/14 01:14:39;;;;;;;1.23;1.12;;;5.30;99.90;;;;;;4431308;32;20116;-53
2020/12/14 01:17:04;;;;;;;7.80;4.28;;;5.30;99.90;;;;;;4430375;32;20116;-53
2020/12/14 01:19:30;;;;;;;8.82;4.15;;;5.30;99.90;;;;;;4430472;32;20062;-57
2020/12/14 01:21:55;;;;;;;6.57;3.87;;;5.30;99.90;;;;;;4430804;32;20085;-56
2020/12/14 01:24:21;;;;;;;1.85;1.70;;;5.30;99.90;;;;;;4430495;32;20061;-55
2020/12/14 01:26:46;;;;;;;10.10;4.15;;;5.40;99.90;;;;;;4429426;32;20413;-53
2020/12/14 01:29:12;;;;;;;4.65;3.25;;;5.30;99.90;;;;;;4429497;32;20073;-54
2020/12/14 01:31:37;;;;;;;3.25;1.92;;;5.30;99.90;;;;;;4430559;32;20069;-52
2020/12/14 01:34:03;;;;;;;17.30;4.05;;;5.30;99.90;;;;;;4435918;32;20069;-53
2020/12/14 01:36:28;;;;;;;2.75;1.95;;;5.30;99.90;;;;;;4432128;32;20065;-52
2020/12/14 01:38:54;;;;;;;8.40;3.85;;;5.30;99.90;;;;;;4424323;32;20102;-55
2020/12/14 01:41:19;;;;;;;5.37;3.80;;;5.30;99.90;;;;;;4414746;32;20413;-53
2020/12/14 01:43:45;;;;;;;5.03;2.92;;;5.20;99.90;;;;;;4414436;32;20431;-52
2020/12/14 01:46:11;;;;;;;2.35;2.00;;;5.30;99.90;;;;;;4414622;32;20062;-56
2020/12/14 01:48:36;;;;;;;1.58;1.48;;;5.30;99.90;;;;;;4417206;32;20072;-56
2020/12/14 01:51:02;;;;;;;2.85;2.58;;;5.30;99.90;;;;;;4416456;32;20077;-54
2020/12/14 01:53:30;;;;;;;14.23;4.93;;;5.40;99.90;;;;;;4430886;32;20081;-52
2020/12/14 01:55:56;;;;;;;8.27;3.00;;;5.40;99.90;;;;;;4428850;32;20132;-53
2020/12/14 01:58:22;;;;;;;5.15;3.08;;;5.40;99.90;;;;;;4416051;32;20120;-52
2020/12/14 02:00:48;;;;;;;4.47;3.37;;;5.30;99.90;;;;;;4416457;32;20057;-56
2020/12/14 02:03:13;;;;;;;9.25;4.28;;;5.40;99.90;;;;;;4431039;32;20122;-52
2020/12/14 02:05:39;;;;;;;6.28;2.55;;;5.30;99.90;;;;;;4431151;32;20082;-52
2020/12/14 02:08:05;;;;;;;6.18;4.03;;;5.30;99.90;;;;;;4416107;32;20066;-54
2020/12/14 02:10:31;;;;;;;3.42;2.47;;;5.30;99.90;;;;;;4429881;32;20081;-56
2020/12/14 02:12:57;;;;;;;4.10;2.65;;;5.30;99.90;;;;;;4429705;32;20123;-57
2020/12/14 02:15:23;;;;;;;6.20;4.03;;;5.30;99.90;;;;;;4429621;32;20088;-52
2020/12/14 02:17:48;;;;;;;3.75;2.50;;;5.20;99.90;;;;;;4430413;32;20073;-57
2020/12/14 02:20:14;;;;;;;5.50;2.83;;;5.20;99.90;;;;;;4432730;32;20131;-53
2020/12/14 02:22:39;;;;;;;2.65;2.25;;;5.10;99.90;;;;;;4430972;32;20503;-53
2020/12/14 02:25:07;;;;;;;11.23;4.15;;;5.20;99.90;;;;;;4429884;32;20507;-55
2020/12/14 02:27:34;;;;;;;7.90;2.17;;;5.20;99.90;;;;;;4429031;32;20066;-55
2020/12/14 02:30:00;;;;;;;4.82;2.50;;;5.20;99.90;;;;;;4417943;32;20416;-53
2020/12/14 02:32:27;;;;;;;2.12;1.62;;;5.30;99.90;;;;;;4416850;32;20069;-56
2020/12/14 02:34:53;;;;;;;3.62;2.05;;;5.30;99.90;;;;;;4429466;32;20539;-57
2020/12/14 02:37:22;;;;;;;17.33;4.40;;;5.30;99.90;;;;;;4430231;32;20081;-57
2020/12/14 02:39:47;;;;;;;4.68;2.33;;;5.30;99.90;;;;;;4406504;32;20073;-56
2020/12/14 02:42:15;;;;;;;3.58;2.58;;;5.30;99.90;;;;;;4399878;32;20077;-53
2020/12/14 02:44:41;;;;;;;3.15;2.53;;;5.30;99.90;;;;;;4441394;32;20061;-55
2020/12/14 02:47:07;;;;;;;4.55;2.33;;;5.40;99.90;;;;;;4439667;32;20760;-53
2020/12/14 02:49:34;;;;;;;3.28;2.03;;;5.40;99.90;;;;;;4438513;32;20427;-55
2020/12/14 02:52:00;;;;;;;1.95;1.62;;;5.50;99.90;;;;;;4431885;32;20069;-56
2020/12/14 02:54:25;;;;;;;2.40;1.75;;;5.50;99.90;;;;;;4430818;32;20395;-54
2020/12/14 02:56:51;;;;;;;3.45;1.87;;;5.60;99.90;;;;;;4446989;32;20082;-56
2020/12/14 02:59:19;;;;;;;8.25;1.92;;;5.60;99.90;;;;;;4424165;32;20073;-55
2020/12/14 03:01:46;;;;;;;3.58;1.90;;;5.60;99.90;;;;;;4416770;32;20503;-57
2020/12/14 03:04:11;;;;;;;5.32;2.33;;;5.60;99.90;;;;;;4416419;32;20062;-54
2020/12/14 03:06:37;;;;;;;4.22;2.00;;;5.50;99.90;;;;;;4429705;32;20086;-52
2020/12/14 03:09:03;;;;;;;6.72;2.62;;;5.50;99.90;;;;;;4432386;32;20069;-57
2020/12/14 03:11:28;;;;;;;2.62;1.80;;;5.40;99.90;;;;;;4432433;32;20467;-54
2020/12/14 03:13:54;;;;;;;2.05;1.55;;;5.30;99.90;;;;;;4432550;32;20065;-56
2020/12/14 03:16:20;;;;;;;3.25;1.75;;;5.30;99.90;;;;;;4432314;32;20072;-55
2020/12/14 03:18:45;;;;;;;4.62;2.45;;;5.30;99.90;;;;;;4415245;32;20119;-52
2020/12/14 03:21:11;;;;;;;2.60;1.60;;;5.30;99.90;;;;;;4402595;32;20061;-52
2020/12/14 03:23:36;;;;;;;4.68;2.03;;;5.30;99.90;;;;;;4416549;32;20113;-53
2020/12/14 03:26:02;;;;;;;4.57;2.75;;;5.30;99.90;;;;;;4415338;32;20065;-53
2020/12/14 03:28:28;;;;;;;3.53;2.08;;;5.30;99.90;;;;;;4417659;32;20117;-52
2020/12/14 03:30:53;;;;;;;10.85;4.32;;;5.30;99.90;;;;;;4419060;32;20124;-52
2020/12/14 03:33:19;;;;;;;2.42;1.55;;;5.30;99.90;;;;;;4418394;32;20077;-53
2020/12/14 03:35:47;;;;;;;1.83;1.65;;;5.20;99.90;;;;;;4418534;32;20074;-57
2020/12/14 03:38:15;;;;;;;4.20;1.87;;;5.10;99.90;;;;;;4432352;32;20072;-57
2020/12/14 03:40:41;;;;;;;5.93;2.45;;;5.10;99.90;;;;;;4446095;32;20081;-56
2020/12/14 03:43:07;;;;;;;15.55;4.45;;;5.00;99.90;;;;;;4447473;32;20506;-55
2020/12/14 03:45:32;;;;;;;2.33;1.65;;;4.90;99.90;;;;;;4447684;32;20081;-57
2020/12/14 03:47:58;;;;;;;2.45;0.88;;;5.00;99.90;;;;;;4435874;32;20065;-56
2020/12/14 03:50:23;;;;;;;1.12;1.02;;;5.00;99.90;;;;;;4445615;32;20112;-55
2020/12/14 03:52:48;;;;;;;1.80;1.08;;;5.10;99.90;;;;;;4433176;32;20077;-54
2020/12/14 03:55:14;;;;;;;1.90;1.17;;;5.10;99.90;;;;;;4446766;32;20518;-52
2020/12/14 03:57:39;;;;;;;0.90;0.90;;;5.10;99.90;;;;;;4447737;32;20412;-52
2020/12/14 04:00:05;;;;;;;1.37;1.27;;;4.90;99.90;;;;;;4436481;32;20084;-55
2020/12/14 04:02:31;;;;;;;1.92;1.12;;;4.80;99.90;;;;;;4430945;32;20082;-56
2020/12/14 04:04:56;;;;;;;1.23;0.93;;;4.80;99.90;;;;;;4432050;32;20392;-56
2020/12/14 04:07:22;;;;;;;3.08;1.48;;;4.80;99.90;;;;;;4431492;32;20084;-55
2020/12/14 04:09:48;;;;;;;2.65;1.25;;;4.80;99.90;;;;;;4431699;32;20061;-52
2020/12/14 04:12:13;;;;;;;1.77;0.98;;;4.80;99.90;;;;;;4417158;32;20483;-56
2020/12/14 04:14:39;;;;;;;2.85;1.55;;;4.80;99.90;;;;;;4430452;32;20078;-53
2020/12/14 04:17:05;;;;;;;0.80;0.73;;;4.80;99.90;;;;;;4418413;32;20086;-57
2020/12/14 04:19:30;;;;;;;0.88;0.88;;;4.70;99.90;;;;;;4431136;32;20518;-56
2020/12/14 04:21:59;;;;;;;7.37;0.98;;;4.80;99.90;;;;;;4431470;32;20128;-56
2020/12/14 04:24:25;;;;;;;1.23;1.12;;;4.70;99.90;;;;;;4430745;32;20062;-52
2020/12/14 04:26:54;;;;;;;4.20;2.12;;;4.70;99.90;;;;;;4430397;32;20077;-55
2020/12/14 04:29:21;;;;;;;3.92;1.50;;;4.60;99.90;;;;;;4410623;32;20159;-53
2020/12/14 04:31:49;;;;;;;1.10;0.80;;;4.60;99.90;;;;;;4416049;32;20078;-54
2020/12/14 04:34:14;;;;;;;1.95;1.20;;;4.70;99.90;;;;;;4414872;32;20551;-56
2020/12/14 04:36:43;;;;;;;0.77;0.77;;;4.70;99.90;;;;;;4402380;32;20062;-55
2020/12/14 04:39:09;;;;;;;7.20;1.25;;;4.70;99.90;;;;;;4402639;32;20124;-55
2020/12/14 04:41:34;;;;;;;2.83;1.45;;;4.50;99.90;;;;;;4416090;32;20483;-55
2020/12/14 04:44:01;;;;;;;2.62;0.90;;;4.50;99.90;;;;;;4414741;32;20125;-56
2020/12/14 04:46:29;;;;;;;12.75;2.10;;;4.50;99.90;;;;;;4417529;32;20343;-53
2020/12/14 04:48:55;;;;;;;1.52;1.05;;;4.50;99.90;;;;;;4417103;32;20073;-52
2020/12/14 04:51:21;;;;;;;2.62;0.70;;;4.60;99.90;;;;;;4430583;32;20530;-56
2020/12/14 04:53:46;;;;;;;2.50;1.48;;;4.60;99.90;;;;;;4418086;32;20069;-54
2020/12/14 04:56:18;;;;;;;10.35;1.45;;;4.60;99.90;;;;;;4430369;32;20068;-56
2020/12/14 04:58:44;;;;;;;1.92;1.15;;;4.60;99.90;;;;;;4418660;32;20072;-52
2020/12/14 05:01:10;;;;;;;3.53;1.55;;;4.50;99.90;;;;;;4434466;32;20119;-54
2020/12/14 05:03:35;;;;;;;1.52;1.23;;;4.60;99.90;;;;;;4446830;32;20069;-54
2020/12/14 05:06:01;;;;;;;0.80;0.80;;;4.60;99.90;;;;;;4437026;32;20498;-57
2020/12/14 05:08:29;;;;;;;0.88;0.88;;;4.60;99.90;;;;;;4417072;32;20523;-52
2020/12/14 05:10:55;;;;;;;0.77;0.77;;;4.60;99.90;;;;;;4431828;32;20121;-52
2020/12/14 05:13:26;;;;;;;2.47;1.30;;;4.60;99.90;;;;;;4444979;32;20069;-57
2020/12/14 05:15:51;;;;;;;0.70;0.70;;;4.50;99.90;;;;;;4445782;32;20061;-55
2020/12/14 05:18:22;;;;;;;2.45;1.40;;;4.50;99.90;;;;;;4446149;32;20085;-56
2020/12/14 05:21:04;;;;;;;1.95;1.70;;;4.60;99.90;;;;;;4415228;32;20070;-56
2020/12/14 05:23:32;;;;;;;1.65;1.42;;;4.60;99.90;;;;;;4408345;32;20078;-55
2020/12/14 05:26:07;;;;;;;0.85;0.82;;;4.50;99.90;;;;;;4427009;32;20062;-54
2020/12/14 05:28:33;;;;;;;0.77;0.77;;;4.40;99.90;;;;;;4404681;32;20148;-55
2020/12/14 05:30:59;;;;;;;1.87;1.15;;;4.40;99.90;;;;;;4415052;32;20070;-56
2020/12/14 05:33:27;;;;;;;1.98;1.40;;;4.50;99.90;;;;;;4409278;32;20089;-56
2020/12/14 05:35:53;;;;;;;3.45;1.02;;;4.60;99.90;;;;;;4401065;32;20057;-55
2020/12/14 05:38:22;;;;;;;1.52;1.33;;;4.70;99.90;;;;;;4403926;32;20091;-56
2020/12/14 05:40:51;;;;;;;1.55;1.33;;;4.50;99.90;;;;;;4434915;32;20074;-56
2020/12/14 05:43:19;;;;;;;2.37;1.33;;;4.50;99.90;;;;;;4429239;32;20128;-56
2020/12/14 05:45:46;;;;;;;2.62;1.77;;;4.50;99.90;;;;;;4416822;32;20501;-53
2020/12/14 05:48:32;;;;;;;1.10;0.70;;;4.50;99.90;;;;;;4416379;32;20070;-54
2020/12/14 05:51:01;;;;;;;1.00;0.95;;;4.50;99.90;;;;;;4403678;32;20438;-55
2020/12/14 05:53:36;;;;;;;2.42;0.70;;;4.50;99.90;;;;;;4401853;32;20065;-53
2020/12/14 05:56:05;;;;;;;2.05;1.10;;;4.50;99.90;;;;;;4400108;32;20066;-55
2020/12/14 05:58:31;;;;;;;0.93;0.90;;;4.60;99.90;;;;;;4417638;32;20579;-52
2020/12/14 06:00:59;;;;;;;0.80;0.80;;;4.50;99.90;;;;;;4430065;32;20074;-52
2020/12/14 06:03:25;;;;;;;0.65;0.55;;;4.60;99.90;;;;;;4413473;32;20090;-57
2020/12/14 06:06:08;;;;;;;3.15;1.50;;;4.70;99.90;;;;;;4423882;32;20066;-52
2020/12/14 06:09:01;;;;;;;2.45;1.58;;;4.80;99.90;;;;;;4410210;32;20511;-57
2020/12/14 06:11:26;;;;;;;0.47;0.47;;;4.70;99.90;;;;;;4418915;32;20553;-56
2020/12/14 06:13:54;;;;;;;1.65;0.88;;;4.80;99.90;;;;;;4429100;32;20366;-53
2020/12/14 06:16:24;;;;;;;0.95;0.95;;;4.90;99.90;;;;;;4415153;32;20062;-54
2020/12/14 06:18:51;;;;;;;2.72;1.25;;;4.90;99.90;;;;;;4408147;32;20074;-56
2020/12/14 06:21:22;;;;;;;4.32;1.27;;;4.90;99.90;;;;;;4409808;32;20062;-53
2020/12/14 06:23:49;;;;;;;0.73;0.65;;;5.00;99.90;;;;;;4428435;32;20135;-56
2020/12/14 06:26:15;;;;;;;9.63;1.40;;;4.90;99.90;;;;;;4415491;32;20064;-54
2020/12/14 06:28:48;;;;;;;1.00;0.90;;;4.80;99.90;;;;;;4423552;32;20514;-56
2020/12/14 06:31:30;;;;;;;1.15;0.93;;;4.80;99.90;;;;;;4409092;32;20069;-55
2020/12/14 06:33:56;;;;;;;1.40;1.02;;;4.80;99.90;;;;;;4381942;32;20170;-57
2020/12/14 06:36:25;;;;;;;1.17;0.70;;;4.80;99.90;;;;;;4427960;32;20068;-58
2020/12/14 06:38:52;;;;;;;0.50;0.50;;;4.70;99.90;;;;;;4412936;32;20207;-57
2020/12/14 06:41:20;;;;;;;0.95;0.95;;;4.60;99.90;;;;;;4415713;32;20778;-56
2020/12/14 06:43:48;;;;;;;3.42;1.27;;;4.70;99.90;;;;;;4433502;32;20086;-59
2020/12/14 06:46:25;;;;;;;0.60;0.60;;;4.70;99.90;;;;;;4415075;32;20188;-59
2020/12/14 06:48:52;;;;;;;1.62;0.90;;;4.70;99.90;;;;;;4415862;32;20139;-60
2020/12/14 06:51:18;;;;;;;1.17;1.05;;;4.60;99.90;;;;;;4429979;32;20078;-60
2020/12/14 06:53:52;;;;;;;0.43;0.43;;;4.70;99.90;;;;;;4406255;32;20100;-59
2020/12/14 06:56:40;;;;;;;1.35;1.25;;;4.60;99.90;;;;;;4413771;32;20078;-59
2020/12/14 06:59:26;;;;;;;1.30;1.00;;;4.70;99.90;;;;;;4414419;32;20090;-59
2020/12/14 07:01:56;;;;;;;3.42;1.00;;;4.60;99.90;;;;;;4418543;32;20174;-60
2020/12/14 07:04:32;;;;;;;1.15;1.08;;;4.50;99.90;;;;;;4411868;32;20081;-57
2020/12/14 07:07:07;;;;;;;1.15;1.08;;;4.40;99.90;;;;;;4427597;32;20069;-60
2020/12/14 07:09:35;;;;;;;0.45;0.45;;;4.50;99.90;;;;;;4429111;32;20092;-59
2020/12/14 07:12:18;;;;;;;0.65;0.65;;;4.50;99.90;;;;;;4416755;32;20065;-60
2020/12/14 07:14:47;;;;;;;0.60;0.60;;;4.50;99.90;;;;;;4427474;32;20161;-61
2020/12/14 07:17:22;;;;;;;0.90;0.90;;;4.50;99.90;;;;;;4428656;32;20430;-58
2020/12/14 07:19:49;;;;;;;1.00;0.93;;;4.40;99.90;;;;;;4430628;32;20073;-61
2020/12/14 07:22:18;;;;;;;0.50;0.50;;;4.20;99.90;;;;;;4417204;32;20073;-63
2020/12/14 07:24:48;;;;;;;1.85;1.52;;;4.20;99.90;;;;;;4414926;32;20135;-60
2020/12/14 07:27:14;;;;;;;1.08;0.68;;;4.20;99.90;;;;;;4415011;32;20086;-59
2020/12/14 07:29:39;;;;;;;1.55;1.00;;;4.20;99.90;;;;;;4427404;32;20074;-57
2020/12/14 07:32:05;;;;;;;2.22;1.62;;;4.10;99.90;;;;;;4426554;32;20090;-58
2020/12/14 07:34:31;;;;;;;1.00;1.00;;;4.10;99.90;;;;;;4418902;32;20139;-58
2020/12/14 07:36:57;;;;;;;0.85;0.80;;;4.20;99.90;;;;;;4430735;32;20542;-58
2020/12/14 07:39:22;;;;;;;0.90;0.77;;;4.20;99.90;;;;;;4417986;32;20090;-62
2020/12/14 07:41:48;;;;;;;1.27;0.95;;;4.20;99.90;;;;;;4428857;32;20062;-61
2020/12/14 07:44:14;;;;;;;1.12;1.02;;;4.30;99.90;;;;;;4420939;32;20521;-58
2020/12/14 07:46:39;;;;;;;0.70;0.70;;;4.30;99.90;;;;;;4423116;32;20510;-60
2020/12/14 07:49:10;;;;;;;1.55;1.12;;;4.30;99.90;;;;;;4429688;32;20529;-58
2020/12/14 07:51:39;;;;;;;0.90;0.85;;;4.30;99.90;;;;;;4421764;32;20111;-58
2020/12/14 07:54:07;;;;;;;0.60;0.60;;;4.30;99.90;;;;;;4415122;32;20072;-58
2020/12/14 07:56:41;;;;;;;0.60;0.60;;;4.30;99.90;;;;;;4415480;32;20063;-58
2020/12/14 07:59:16;;;;;;;2.92;1.33;;;4.40;99.90;;;;;;4411784;32;20609;-56
2020/12/14 08:01:43;;;;;;;1.15;0.75;;;4.30;99.90;;;;;;4423772;32;20113;-57
2020/12/14 08:04:09;;;;;;;0.57;0.57;;;4.30;99.90;;;;;;4427244;32;20094;-56
2020/12/14 08:06:38;;;;;;;0.62;0.62;;;4.30;99.90;;;;;;4426774;32;20444;-56
2020/12/14 08:09:06;;;;;;;4.62;2.22;;;4.30;99.90;;;;;;4426003;32;20069;-58
2020/12/14 08:11:32;;;;;;;1.02;1.00;;;4.30;99.90;;;;;;4410574;32;20061;-59
2020/12/14 08:13:57;;;;;;;3.37;0.88;;;4.40;99.90;;;;;;4425074;32;20069;-57
2020/12/14 08:16:23;;;;;;;2.25;1.30;;;4.30;99.90;;;;;;4423345;32;20127;-56
2020/12/14 08:18:49;;;;;;;0.80;0.80;;;4.40;99.90;;;;;;4408719;32;20132;-55
2020/12/14 08:21:24;;;;;;;1.92;1.42;;;4.40;99.90;;;;;;4410886;32;20069;-56
2020/12/14 08:23:50;;;;;;;0.40;0.40;;;4.50;99.90;;;;;;4390607;32;20208;-59
2020/12/14 08:26:24;;;;;;;0.88;0.77;;;4.40;99.90;;;;;;4416120;32;20093;-58
2020/12/14 08:28:57;;;;;;;0.93;0.90;;;4.50;99.90;;;;;;4423238;32;20088;-59
2020/12/14 08:31:23;;;;;;;1.17;0.73;;;4.50;99.90;;;;;;4410982;32;20657;-60
2020/12/14 08:33:51;;;;;;;1.75;1.05;;;4.60;99.90;;;;;;4401332;32;20095;-59
2020/12/14 08:36:17;;;;;;;2.85;1.67;;;4.60;99.90;;;;;;4416649;32;20065;-58
2020/12/14 08:38:44;;;;;;;0.50;0.50;;;4.70;99.90;;;;;;4420862;32;20077;-56
2020/12/14 08:41:10;;;;;;;3.00;1.05;;;4.70;99.90;;;;;;4404811;32;94906;-59
2020/12/14 08:43:39;;;;;;;1.40;0.93;;;4.90;99.90;;;;;;4415397;32;20227;-57
2020/12/14 08:46:11;;;;;;;1.10;1.00;;;5.00;99.90;;;;;;4414353;32;20077;-57
2020/12/14 08:48:55;;;;;;;0.80;0.80;;;4.90;99.90;;;;;;4407430;32;20112;-59
2020/12/14 08:51:23;;;;;;;1.60;1.20;;;4.90;99.90;;;;;;4410793;32;20102;-60
2020/12/14 08:53:51;;;;;;;0.68;0.68;;;4.80;99.90;;;;;;4393079;32;20447;-60
2020/12/14 08:56:58;;;;;;;0.80;0.80;;;4.80;99.90;;;;;;4405710;32;20409;-58
2020/12/14 08:59:25;;;;;;;1.35;1.25;;;4.90;99.90;;;;;;4414450;32;20227;-59
2020/12/14 09:02:08;;;;;;;4.00;1.30;;;5.00;99.90;;;;;;4424248;32;20077;-59
2020/12/14 09:04:36;;;;;;;0.80;0.80;;;5.00;99.90;;;;;;4417907;32;20070;-60
2020/12/14 09:07:04;;;;;;;2.37;1.25;;;5.10;99.90;;;;;;4412725;32;20128;-60
2020/12/14 09:09:33;;;;;;;0.70;0.70;;;5.10;99.90;;;;;;4420704;32;20065;-60
2020/12/14 09:12:01;;;;;;;1.23;1.12;;;5.00;99.90;;;;;;4271249;32;20764;-60
2020/12/14 09:14:37;;;;;;;0.82;0.82;;;5.00;99.90;;;;;;3903166;32;21442;-60
2020/12/14 09:17:29;;;;;;;1.85;1.23;;;5.00;99.90;;;;;;4067456;32;20964;-60
2020/12/14 09:20:08;;;;;;;1.85;1.20;;;5.00;99.90;;;;;;3838127;32;21373;-60
2020/12/14 09:22:40;;;;;;;1.40;0.77;;;5.00;99.90;;;;;;3662056;32;21220;-60
2020/12/14 09:25:14;;;;;;;1.20;1.10;;;5.00;99.90;;;;;;3734883;32;21650;-59
2020/12/14 09:27:40;;;;;;;0.95;0.93;;;5.00;99.90;;;;;;3840162;32;21218;-59
2020/12/14 09:30:33;;;;;;;4.57;1.27;;;5.00;99.90;;;;;;3740392;32;20777;-60
2020/12/14 09:33:06;;;;;;;0.62;0.62;;;5.10;99.90;;;;;;3764699;32;20690;-60
2020/12/14 09:35:37;;;;;;;0.82;0.82;;;5.10;99.90;;;;;;3890157;32;20399;-61
2020/12/14 09:38:04;;;;;;;1.05;1.00;;;5.20;99.90;;;;;;3810808;32;20862;-61
2020/12/14 09:40:34;;;;;;;1.37;1.27;;;5.20;99.90;;;;;;4000833;32;20622;-60
2020/12/14 09:43:13;;;;;;;0.88;0.85;;;5.40;99.90;;;;;;4005438;32;28359;-60
2020/12/14 09:45:39;;;;;;;2.30;1.52;;;5.60;99.90;;;;;;4024188;32;21050;-60
2020/12/14 09:48:14;;;;;;;1.55;0.98;;;5.70;99.90;;;;;;3938682;32;20755;-60
2020/12/14 09:50:40;;;;;;;2.25;1.83;;;5.80;99.90;;;;;;3942405;32;20985;-60
2020/12/14 09:53:09;;;;;;;0.82;0.70;;;5.80;99.90;;;;;;3971107;32;22125;-60
2020/12/14 09:55:37;;;;;;;0.90;0.88;;;5.90;99.90;;;;;;3813960;32;21070;-60
2020/12/14 09:58:06;;;;;;;1.52;1.17;;;5.90;99.90;;;;;;3783661;32;20753;-60
2020/12/14 10:00:42;;;;;;;0.90;0.90;;;5.90;99.90;;;;;;3820269;32;21074;-60
2020/12/14 10:03:31;;;;;;;5.87;1.27;;;5.90;99.90;;;;;;3910107;32;20447;-59
2020/12/14 10:06:15;;;;;;;2.08;1.50;;;5.90;99.90;;;;;;3889460;32;20778;-60
2020/12/14 10:08:55;;;;;;;0.93;0.93;;;6.00;99.90;;;;;;3923233;32;20967;-60
2020/12/14 10:11:41;;;;;;;1.48;0.82;;;6.00;99.90;;;;;;3883487;32;21044;-58
2020/12/14 10:14:22;;;;;;;0.80;0.65;;;6.10;99.90;;;;;;4180222;32;20087;-59
2020/12/14 10:17:09;;;;;;;;;;;6.10;99.90;;;;;;3956993;32;20738;-58
2020/12/14 10:19:35;;;;;;;1.45;0.62;;;6.00;99.90;;;;;;4272373;32;19991;-60
2020/12/14 10:22:00;;;;;;;1.23;1.12;;;6.00;99.90;;;;;;4394178;32;20062;-59
2020/12/14 10:24:26;;;;;;;0.93;0.80;;;5.90;99.90;;;;;;4378613;32;20066;-56
2020/12/14 10:26:51;;;;;;;2.05;1.45;;;5.90;99.90;;;;;;4406583;32;20065;-58
2020/12/14 10:29:17;;;;;;;0.47;0.47;;;6.00;99.90;;;;;;4406302;32;20417;-58
2020/12/14 10:31:44;;;;;;;0.43;0.43;;;6.00;99.90;;;;;;4412063;32;20544;-59
2020/12/14 10:34:10;;;;;;;0.73;0.73;;;6.10;99.90;;;;;;4385105;32;20081;-59
2020/12/14 10:36:36;;;;;;;0.85;0.85;;;6.20;99.90;;;;;;4402563;32;20078;-59
2020/12/14 10:39:01;;;;;;;0.55;0.55;;;6.10;99.90;;;;;;4400065;32;20161;-60
2020/12/14 10:41:28;;;;;;;0.98;0.98;;;6.20;99.90;;;;;;4406752;32;20079;-59
2020/12/14 10:43:53;;;;;;;1.87;1.23;;;6.30;99.90;;;;;;4411121;32;20152;-60
2020/12/14 10:46:24;;;;;;;1.45;0.75;;;6.30;99.90;;;;;;4409903;32;20057;-59
2020/12/14 10:48:50;;;;;;;0.70;0.65;;;6.30;99.90;;;;;;4391753;32;20267;-58
2020/12/14 10:51:15;;;;;;;1.08;1.00;;;6.30;99.90;;;;;;4406576;32;20125;-59
2020/12/14 10:53:41;;;;;;;3.65;1.45;;;6.40;99.90;;;;;;4404828;32;20117;-59
2020/12/14 10:56:07;;;;;;;2.67;1.00;;;6.50;99.90;;;;;;4406354;32;20090;-59
2020/12/14 10:58:32;;;;;;;2.85;1.12;;;6.50;99.90;;;;;;4394457;32;20132;-60
2020/12/14 11:00:58;;;;;;;1.75;1.02;;;6.60;99.90;;;;;;4393141;32;20053;-60
2020/12/14 11:03:25;;;;;;;1.05;0.95;;;6.70;99.90;;;;;;4408127;32;20452;-58
2020/12/14 11:05:52;;;;;;;1.92;1.08;;;6.70;99.90;;;;;;4393699;32;20237;-59
2020/12/14 11:08:18;;;;;;;0.40;0.40;;;6.80;99.90;;;;;;4408124;32;20222;-54
2020/12/14 11:10:44;;;;;;;1.73;1.00;;;6.80;99.90;;;;;;4404691;32;20062;-58
2020/12/14 11:13:09;;;;;;;1.37;1.15;;;6.90;99.90;;;;;;4406402;32;20578;-55
2020/12/14 11:15:34;;;;;;;0.75;0.75;;;6.90;99.90;;;;;;4405876;32;20049;-59
2020/12/14 11:18:00;;;;;;;2.10;1.30;;;7.10;99.90;;;;;;4404071;32;20062;-60
2020/12/14 11:20:26;;;;;;;0.65;0.65;;;7.10;99.90;;;;;;4401264;32;20098;-59
2020/12/14 11:22:51;;;;;;;0.55;0.50;;;7.30;99.90;;;;;;4406554;32;20085;-59
2020/12/14 11:25:17;;;;;;;2.33;0.88;;;7.20;99.90;;;;;;4398722;32;20108;-58
2020/12/14 11:27:43;;;;;;;0.47;0.47;;;7.20;99.90;;;;;;4404459;32;20066;-59
2020/12/14 11:30:11;;;;;;;0.75;0.70;;;7.40;99.90;;;;;;4411629;32;20074;-60
2020/12/14 11:32:37;;;;;;;4.12;1.30;;;7.60;99.90;;;;;;4407728;32;20081;-58
2020/12/14 11:35:03;;;;;;;1.10;0.73;;;7.80;99.90;;;;;;4408177;32;20074;-61
2020/12/14 11:37:29;;;;;;;19.35;1.08;;;8.20;99.90;;;;;;4412215;32;20086;-59
2020/12/14 11:39:54;;;;;;;3.10;1.40;;;8.40;99.90;;;;;;4398268;32;20467;-59
2020/12/14 11:42:20;;;;;;;6.93;0.50;;;8.40;99.90;;;;;;4408813;32;20069;-58
2020/12/14 11:44:45;;;;;;;2.47;1.70;;;8.40;99.90;;;;;;4393964;32;20125;-58
2020/12/14 11:47:11;;;;;;;4.03;1.15;;;8.30;99.90;;;;;;4406436;32;20070;-56
2020/12/14 11:49:36;;;;;;;1.27;0.62;;;8.20;99.90;;;;;;4402572;32;20102;-58
2020/12/14 11:52:02;;;;;;;1.17;0.82;;;8.10;99.90;;;;;;4405690;32;20127;-59
2020/12/14 11:54:28;;;;;;;0.95;0.95;;;8.00;99.90;;;;;;4390905;32;20070;-58
2020/12/14 11:56:54;;;;;;;4.28;1.00;;;8.20;99.90;;;;;;4398025;32;20823;-58
2020/12/14 11:59:20;;;;;;;3.92;1.05;;;8.30;99.90;;;;;;4391363;32;20074;-59
2020/12/14 12:01:45;;;;;;;1.35;1.10;;;8.30;99.90;;;;;;4403895;32;20252;-59
2020/12/14 12:04:11;;;;;;;1.10;1.00;;;8.20;99.90;;;;;;4401640;32;20078;-60
2020/12/14 12:06:36;;;;;;;1.65;0.88;;;8.20;99.90;;;;;;4407070;32;20093;-59
2020/12/14 12:09:04;;;;;;;0.50;0.50;;;8.20;99.90;;;;;;4401286;32;20433;-59
2020/12/14 12:11:32;;;;;;;2.42;0.62;;;8.10;99.90;;;;;;4391578;32;20578;-59
2020/12/14 12:14:00;;;;;;;0.80;0.77;;;8.00;99.90;;;;;;4406225;32;20476;-59
2020/12/14 12:16:25;;;;;;;1.17;0.93;;;7.80;99.90;;;;;;4392796;32;20073;-60
2020/12/14 12:18:51;;;;;;;12.70;0.98;;;7.70;99.90;;;;;;4394529;32;20094;-60
2020/12/14 12:21:16;;;;;;;3.25;0.95;;;7.70;99.90;;;;;;4396971;32;21058;-56
2020/12/14 12:23:43;;;;;;;0.75;0.73;;;7.80;99.90;;;;;;4385597;32;20085;-58
2020/12/14 12:26:09;;;;;;;1.27;1.02;;;7.70;99.90;;;;;;4404130;32;20536;-59
2020/12/14 12:28:34;;;;;;;0.40;0.40;;;7.80;99.90;;;;;;4403531;32;20094;-58
2020/12/14 12:31:00;;;;;;;1.25;0.98;;;7.70;99.90;;;;;;4404017;32;20104;-58
2020/12/14 12:33:25;;;;;;;0.98;0.88;;;7.80;99.90;;;;;;4411773;32;20070;-59
2020/12/14 12:38:37;;;;;;;;;;;8.00;99.90;;;;;;4410326;32;20086;-86
2020/12/14 12:42:23;;;;;;;;;;;;;;;;;;;;;
2020/12/14 12:45:38;;;;;;;0.90;0.85;;;7.90;99.90;;;;;;4358169;32;20463;-88
2020/12/14 12:48:04;;;;;;;1.00;0.93;;;7.90;99.90;;;;;;4391538;32;20058;-57
2020/12/14 12:50:30;;;;;;;0.30;0.30;;;8.00;99.90;;;;;;4396126;32;20062;-59
2020/12/14 12:52:55;;;;;;;6.60;0.98;;;8.00;99.90;;;;;;4392832;32;20054;-59
2020/12/14 12:55:21;;;;;;;1.00;0.90;;;8.10;99.90;;;;;;4394123;32;20132;-61
2020/12/14 12:57:46;;;;;;;1.48;1.30;;;8.20;99.90;;;;;;4396050;32;20399;-57
2020/12/14 13:00:12;;;;;;;0.50;0.50;;;8.20;99.90;;;;;;4392852;32;20587;-59
2020/12/14 13:02:37;;;;;;;1.25;0.90;;;8.30;99.90;;;;;;4393655;32;20128;-56
2020/12/14 13:05:03;;;;;;;0.88;0.88;;;8.40;99.90;;;;;;4386038;32;20166;-58
2020/12/14 13:07:28;;;;;;;0.55;0.52;;;8.40;99.90;;;;;;4396485;32;20073;-59